createdAt,value
2023-01-18T00:00:18.122Z,2.16
2023-01-18T00:05:20.231Z,2.20
2023-01-18T00:10:23.663Z,2.24
2023-01-18T00:15:25.404Z,2.27
2023-01-18T00:20:29.282Z,2.31
2023-01-18T00:25:31.146Z,2.33
2023-01-18T00:30:32.982Z,2.36
2023-01-18T00:35:34.817Z,2.35
2023-01-18T00:40:36.592Z,2.37
2023-01-18T00:45:38.537Z,2.38
2023-01-18T00:50:40.368Z,2.36
2023-01-18T00:55:42.229Z,2.38
2023-01-18T01:00:44.230Z,2.40
2023-01-18T01:06:05.077Z,2.43
2023-01-18T01:11:12.556Z,2.46
2023-01-18T01:16:32.801Z,2.49
2023-01-18T01:21:53.243Z,2.50
2023-01-18T01:26:55.205Z,2.49
2023-01-18T01:31:57.033Z,2.49
2023-01-18T01:36:59.026Z,2.49
2023-01-18T01:42:02.072Z,2.49
2023-01-18T01:47:13.906Z,2.48
2023-01-18T01:52:25.423Z,2.47
2023-01-18T01:57:31.965Z,2.47
2023-01-18T02:02:36.612Z,2.45
2023-01-18T02:07:38.969Z,2.45
2023-01-18T02:12:44.758Z,2.43
2023-01-18T02:18:05.078Z,2.43
2023-01-18T02:23:25.317Z,2.42
2023-01-18T02:28:33.682Z,2.41
2023-01-18T02:33:58.339Z,2.41
2023-01-18T02:39:32.020Z,2.41
2023-01-18T02:44:59.174Z,2.42
2023-01-18T02:50:02.512Z,2.44
2023-01-18T02:55:06.527Z,2.43
2023-01-18T03:00:11.379Z,2.41
2023-01-18T03:05:13.796Z,2.40
2023-01-18T03:10:17.024Z,2.40
2023-01-18T03:15:29.107Z,2.43
2023-01-18T03:20:35.350Z,2.44
2023-01-18T03:25:59.321Z,2.43
2023-01-18T03:31:24.579Z,2.45
2023-01-18T03:36:43.810Z,2.42
2023-01-18T03:41:51.719Z,2.37
2023-01-18T03:46:53.465Z,2.37
2023-01-18T03:51:58.169Z,2.34
2023-01-18T03:57:10.243Z,2.34
2023-01-18T04:02:12.219Z,2.32
2023-01-18T04:07:14.289Z,2.30
2023-01-18T04:12:16.098Z,2.30
2023-01-18T04:17:18.413Z,2.29
2023-01-18T04:22:20.155Z,2.28
2023-01-18T04:27:24.288Z,2.25
2023-01-18T04:32:26.338Z,2.19
2023-01-18T04:37:34.299Z,2.12
2023-01-18T04:42:35.983Z,2.13
2023-01-18T04:47:37.687Z,2.08
2023-01-18T04:52:39.505Z,2.10
2023-01-18T04:57:42.967Z,2.11
2023-01-18T05:02:44.967Z,2.08
2023-01-18T05:07:46.848Z,2.09
2023-01-18T05:12:48.852Z,2.11
2023-01-18T05:17:50.683Z,2.10
2023-01-18T05:22:52.530Z,2.10
2023-01-18T05:27:54.383Z,2.09
2023-01-18T05:32:56.609Z,2.08
2023-01-18T05:37:58.756Z,2.06
2023-01-18T05:43:00.909Z,2.04
2023-01-18T05:48:04.130Z,2.02
2023-01-18T05:53:06.859Z,2.02
2023-01-18T05:58:09.119Z,2.02
2023-01-18T06:03:11.958Z,2.00
2023-01-18T06:08:14.264Z,1.98
2023-01-18T06:13:16.075Z,1.95
2023-01-18T06:18:17.980Z,1.95
2023-01-18T06:23:19.876Z,1.92
2023-01-18T06:28:22.757Z,1.90
2023-01-18T06:33:25.148Z,1.92
2023-01-18T06:38:27.313Z,1.93
2023-01-18T06:43:29.467Z,1.94
2023-01-18T06:48:31.337Z,1.96
2023-01-18T06:53:33.213Z,1.99
2023-01-18T06:58:34.970Z,2.01
2023-01-18T07:03:39.057Z,2.05
2023-01-18T07:08:42.226Z,2.10
2023-01-18T07:13:44.210Z,2.13
2023-01-18T07:18:47.738Z,2.13
2023-01-18T07:23:49.580Z,2.14
2023-01-18T07:28:52.069Z,2.12
2023-01-18T07:33:53.862Z,2.12
2023-01-18T07:38:55.791Z,2.14
2023-01-18T07:43:57.539Z,2.14
2023-01-18T07:48:59.457Z,2.15
2023-01-18T07:54:01.267Z,2.15
2023-01-18T07:59:03.063Z,2.17
2023-01-18T08:04:06.085Z,2.22
2023-01-18T08:09:08.089Z,2.27
2023-01-18T08:14:09.922Z,2.33
2023-01-18T08:19:11.775Z,2.38
2023-01-18T08:24:14.140Z,2.39
2023-01-18T08:29:15.894Z,2.36
2023-01-18T08:34:17.795Z,2.37
2023-01-18T08:39:19.594Z,2.40
2023-01-18T08:44:21.852Z,2.44
2023-01-18T08:49:23.636Z,2.45
2023-01-18T08:54:26.162Z,2.46
2023-01-18T08:59:28.395Z,2.44
2023-01-18T09:04:30.348Z,2.48
2023-01-18T09:09:32.280Z,2.51
2023-01-18T09:14:34.137Z,2.58
2023-01-18T09:19:36.034Z,2.64
2023-01-18T09:24:38.383Z,2.68
2023-01-18T09:29:40.477Z,2.66
2023-01-18T09:34:42.597Z,2.69
2023-01-18T09:39:51.951Z,2.74
2023-01-18T09:44:58.849Z,2.75
2023-01-18T09:50:11.014Z,2.75
2023-01-18T09:55:22.952Z,2.75
2023-01-18T10:00:28.810Z,2.73
2023-01-18T10:05:34.804Z,2.72
2023-01-18T10:10:39.849Z,2.77
2023-01-18T10:15:42.575Z,2.79
2023-01-18T10:20:44.348Z,2.84
2023-01-18T10:25:53.389Z,2.87
2023-01-18T10:30:58.171Z,2.91
2023-01-18T10:36:22.363Z,2.92
2023-01-18T10:41:31.726Z,2.94
2023-01-18T10:46:33.533Z,2.96
2023-01-18T10:51:37.669Z,2.96
2023-01-18T10:56:40.318Z,2.94
2023-01-18T11:01:54.490Z,2.95
2023-01-18T11:06:59.867Z,3.02
2023-01-18T11:12:42.777Z,3.09
2023-01-18T11:18:00.436Z,3.10
2023-01-18T11:23:16.360Z,3.10
2023-01-18T11:28:26.613Z,3.07
2023-01-18T11:33:30.970Z,3.06
2023-01-18T11:38:34.826Z,3.05
2023-01-18T11:43:39.496Z,3.09
2023-01-18T11:48:52.663Z,3.09
2023-01-18T11:54:05.825Z,3.11
2023-01-18T11:59:47.031Z,3.12
2023-01-18T12:04:51.569Z,3.15
2023-01-18T12:09:58.046Z,3.11
2023-01-18T12:15:14.690Z,3.11
2023-01-18T12:20:53.851Z,3.13
2023-01-18T12:26:12.310Z,3.12
2023-01-18T12:31:40.045Z,3.08
2023-01-18T12:36:47.449Z,3.02
2023-01-18T12:42:07.710Z,2.93
2023-01-18T12:47:35.031Z,2.86
2023-01-18T12:52:45.545Z,2.84
2023-01-18T12:57:51.162Z,2.85
2023-01-18T13:02:57.523Z,2.85
2023-01-18T13:08:06.461Z,2.81
2023-01-18T13:13:17.616Z,2.76
2023-01-18T13:18:33.433Z,2.74
2023-01-18T13:23:56.405Z,2.72
2023-01-18T13:29:10.453Z,2.71
2023-01-18T13:34:48.079Z,2.71
2023-01-18T13:39:52.555Z,2.72
2023-01-18T13:45:25.043Z,2.75
2023-01-18T13:50:36.392Z,2.75
2023-01-18T13:55:53.405Z,2.75
2023-01-18T14:01:06.098Z,2.74
2023-01-18T14:06:15.910Z,2.74
2023-01-18T14:11:27.399Z,2.77
2023-01-18T14:16:35.170Z,2.76
2023-01-18T14:22:16.561Z,2.74
2023-01-18T14:27:25.795Z,2.66
2023-01-18T14:32:35.808Z,2.63
2023-01-18T14:37:37.901Z,2.63
2023-01-18T14:42:50.354Z,2.60
2023-01-18T14:47:52.730Z,2.60
2023-01-18T14:52:54.717Z,2.61
2023-01-18T14:58:23.146Z,2.62
2023-01-18T15:03:29.796Z,2.58
2023-01-18T15:08:34.665Z,2.54
2023-01-18T15:13:49.231Z,2.52
2023-01-18T15:18:54.386Z,2.47
2023-01-18T15:24:09.184Z,2.47
2023-01-18T15:29:16.621Z,2.47
2023-01-18T15:34:25.364Z,2.43
2023-01-18T15:39:27.686Z,2.37
2023-01-18T15:44:50.018Z,2.35
2023-01-18T15:49:54.435Z,2.33
2023-01-18T15:54:56.940Z,2.32
2023-01-18T16:00:01.830Z,2.34
2023-01-18T16:05:21.317Z,2.35
2023-01-18T16:10:30.563Z,2.33
2023-01-18T16:15:32.586Z,2.36
2023-01-18T16:20:35.927Z,2.39
2023-01-18T16:25:37.999Z,2.41
2023-01-18T16:30:40.351Z,2.40
2023-01-18T16:35:42.306Z,2.38
2023-01-18T16:40:46.954Z,2.37
2023-01-18T16:45:51.463Z,2.36
2023-01-18T16:50:54.230Z,2.36
2023-01-18T16:55:56.777Z,2.35
2023-01-18T17:01:07.619Z,2.36
2023-01-18T17:06:16.760Z,2.38
2023-01-18T17:11:18.579Z,2.38
2023-01-18T17:16:20.771Z,2.37
2023-01-18T17:21:22.922Z,2.35
2023-01-18T17:26:24.761Z,2.34
2023-01-18T17:31:28.499Z,2.35
2023-01-18T17:36:30.308Z,2.34
2023-01-18T17:41:33.815Z,2.32
2023-01-18T17:46:36.656Z,2.27
2023-01-18T17:51:38.654Z,2.22
2023-01-18T17:56:40.473Z,2.23
2023-01-18T18:01:42.536Z,2.24
2023-01-18T18:06:53.746Z,2.23
2023-01-18T18:11:56.315Z,2.23
2023-01-18T18:16:58.291Z,2.22
2023-01-18T18:22:01.501Z,2.20
2023-01-18T18:27:03.275Z,2.17
2023-01-18T18:32:07.037Z,2.13
2023-01-18T18:37:08.958Z,2.13
2023-01-18T18:42:10.750Z,2.11
2023-01-18T18:47:13.483Z,2.08
2023-01-18T18:52:15.312Z,1.99
2023-01-18T18:57:17.168Z,1.93
2023-01-18T19:02:19.473Z,1.88
2023-01-18T19:07:21.547Z,1.80
2023-01-18T19:12:23.456Z,1.81
2023-01-18T19:17:30.637Z,1.80
2023-01-18T19:22:33.048Z,1.79
2023-01-18T19:27:34.868Z,1.75
2023-01-18T19:32:36.944Z,1.73
2023-01-18T19:37:38.800Z,1.73
2023-01-18T19:42:40.921Z,1.68
2023-01-18T19:47:42.906Z,1.66
2023-01-18T19:52:46.289Z,1.68
2023-01-18T19:57:49.031Z,1.69
2023-01-18T20:02:50.921Z,1.63
2023-01-18T20:07:53.172Z,1.61
2023-01-18T20:12:56.095Z,1.61
2023-01-18T20:17:57.928Z,1.62
2023-01-18T20:23:04.375Z,1.65
2023-01-18T20:28:06.336Z,1.67
2023-01-18T20:33:08.180Z,1.67
2023-01-18T20:38:10.653Z,1.69
2023-01-18T20:43:12.421Z,1.72
2023-01-18T20:48:14.391Z,1.75
2023-01-18T20:53:16.462Z,1.77
2023-01-18T20:58:18.193Z,1.76
2023-01-18T21:03:20.570Z,1.78
2023-01-18T21:08:22.608Z,1.79
2023-01-18T21:13:24.871Z,1.76
2023-01-18T21:18:27.299Z,1.73
2023-01-18T21:23:29.807Z,1.68
2023-01-18T21:28:31.567Z,1.65
2023-01-18T21:33:33.884Z,1.57
2023-01-18T21:38:36.199Z,1.51
2023-01-18T21:43:56.816Z,1.46
2023-01-18T21:49:06.823Z,1.39
2023-01-18T21:54:16.664Z,1.32
2023-01-18T21:59:18.547Z,1.29
2023-01-18T22:04:39.065Z,1.27
2023-01-18T22:09:42.721Z,1.23
2023-01-18T22:14:45.807Z,1.19
2023-01-18T22:19:48.253Z,1.15
2023-01-18T22:24:50.102Z,1.08
2023-01-18T22:29:51.864Z,1.03
2023-01-18T22:34:53.739Z,1.01
2023-01-18T22:39:55.568Z,0.97
2023-01-18T22:44:57.497Z,0.95
2023-01-18T22:49:59.245Z,0.92
2023-01-18T22:55:01.098Z,0.89
2023-01-18T23:00:04.702Z,0.84
2023-01-18T23:05:07.143Z,0.79
2023-01-18T23:10:09.740Z,0.76
2023-01-18T23:15:31.421Z,0.72
2023-01-18T23:20:33.389Z,0.67
2023-01-18T23:25:35.347Z,0.60
2023-01-18T23:30:37.156Z,0.56
2023-01-18T23:35:38.967Z,0.54
2023-01-18T23:40:59.451Z,0.52
2023-01-18T23:46:19.734Z,0.49
2023-01-18T23:51:40.137Z,0.47
2023-01-18T23:56:43.009Z,0.44
